Marriott-Slaterville City, Utah
Current Conditions -  °F | °C
As of 6:53 AM on Friday 31 Oct 2014 (Local Time) from KOGD Reporting Station
Clear Clear  
Wind Chill: 51°   Ceiling: Unl
Heat Index: 51°   Visibility: 10mi
Dew Point: 25°   Wind: 10mph
Humidity: 36%   Direction: 150°SSE
Pressure: 30.01"   Gusts: NA
Location:  41.2701°N, 112.135°W
Report Text: KOGD 311253Z AUTO 15009KT 10SM CLR 11/M04 A3001 RMK AO2 SLP134 T01061039 TSNO
Loading
Personal Weather Stations






























Interactive Weather Map
Tropical Storm Tracking
New forecast layout! Learn more

10-Day Weather Forecast

Advertisements
Track Severe Weather on mobile